sensor_id;sensor_type;location;lat;lon;timestamp;pressure;altitude;pressure_sealevel;temperature;humidity
79709;BME280;69203;48.964;9.118;2024-03-07T00:00:22;99689.88;;;3.92;100.00
79709;BME280;69203;48.964;9.118;2024-03-07T00:01:23;99695.84;;;3.95;100.00
79709;BME280;69203;48.964;9.118;2024-03-07T00:02:23;99699.38;;;3.93;100.00
79709;BME280;69203;48.964;9.118;2024-03-07T00:03:23;99697.66;;;3.92;100.00
79709;BME280;69203;48.964;9.118;2024-03-07T00:04:24;99691.69;;;3.90;100.00
79709;BME280;69203;48.964;9.118;2024-03-07T00:05:25;99702.06;;;3.90;100.00
79709;BME280;69203;48.964;9.118;2024-03-07T00:06:25;99690.28;;;3.76;100.00
79709;BME280;69203;48.964;9.118;2024-03-07T00:07:26;99700.53;;;3.82;100.00
79709;BME280;69203;48.964;9.118;2024-03-07T00:08:26;99697.03;;;3.83;100.00
79709;BME280;69203;48.964;9.118;2024-03-07T00:09:26;99680.78;;;3.75;100.00
79709;BME280;69203;48.964;9.118;2024-03-07T00:10:27;99691.25;;;3.74;100.00
79709;BME280;69203;48.964;9.118;2024-03-07T00:11:28;99694.81;;;3.70;100.00
79709;BME280;69203;48.964;9.118;2024-03-07T00:12:30;99698.25;;;3.70;100.00
79709;BME280;69203;48.964;9.118;2024-03-07T00:13:32;99700.16;;;3.64;100.00
79709;BME280;69203;48.964;9.118;2024-03-07T00:14:32;99698.50;;;3.61;100.00
79709;BME280;69203;48.964;9.118;2024-03-07T00:15:35;99696.88;;;3.57;100.00
79709;BME280;69203;48.964;9.118;2024-03-07T00:16:36;99698.50;;;3.61;100.00
79709;BME280;69203;48.964;9.118;2024-03-07T00:17:38;99698.44;;;3.64;100.00
79709;BME280;69203;48.964;9.118;2024-03-07T00:18:39;99700.28;;;3.59;100.00
79709;BME280;69203;48.964;9.118;2024-03-07T00:19:40;99694.16;;;3.62;100.00
79709;BME280;69203;48.964;9.118;2024-03-07T00:20:41;99703.69;;;3.61;100.00
79709;BME280;69203;48.964;9.118;2024-03-07T00:21:43;99704.41;;;3.66;100.00
79709;BME280;69203;48.964;9.118;2024-03-07T00:22:43;99687.53;;;3.50;100.00
79709;BME280;69203;48.964;9.118;2024-03-07T00:23:44;99713.81;;;3.70;100.00
79709;BME280;69203;48.964;9.118;2024-03-07T00:24:44;99704.66;;;3.57;100.00
79709;BME280;69203;48.964;9.118;2024-03-07T00:25:47;99707.97;;;3.64;100.00
79709;BME280;69203;48.964;9.118;2024-03-07T00:26:49;99712.88;;;3.74;100.00
79709;BME280;69203;48.964;9.118;2024-03-07T00:27:51;99706.16;;;3.66;100.00
79709;BME280;69203;48.964;9.118;2024-03-07T00:28:53;99707.81;;;3.70;100.00
79709;BME280;69203;48.964;9.118;2024-03-07T00:29:54;99696.56;;;3.69;100.00
79709;BME280;69203;48.964;9.118;2024-03-07T00:30:54;99703.44;;;3.70;100.00
79709;BME280;69203;48.964;9.118;2024-03-07T00:31:56;99700.84;;;3.70;100.00
79709;BME280;69203;48.964;9.118;2024-03-07T00:32:57;99711.31;;;3.67;100.00
79709;BME280;69203;48.964;9.118;2024-03-07T00:33:58;99696.50;;;3.71;100.00
79709;BME280;69203;48.964;9.118;2024-03-07T00:34:58;99711.72;;;3.85;100.00
79709;BME280;69203;48.964;9.118;2024-03-07T00:35:59;99706.72;;;3.77;100.00
79709;BME280;69203;48.964;9.118;2024-03-07T00:37:00;99694.06;;;3.65;100.00
79709;BME280;69203;48.964;9.118;2024-03-07T00:38:00;99694.28;;;3.57;100.00
79709;BME280;69203;48.964;9.118;2024-03-07T00:39:01;99707.97;;;3.62;100.00
79709;BME280;69203;48.964;9.118;2024-03-07T00:40:02;99699.38;;;3.60;100.00
79709;BME280;69203;48.964;9.118;2024-03-07T00:41:03;99703.50;;;3.69;100.00
79709;BME280;69203;48.964;9.118;2024-03-07T00:42:04;99694.31;;;3.56;100.00
79709;BME280;69203;48.964;9.118;2024-03-07T00:43:05;99702.88;;;3.59;100.00
79709;BME280;69203;48.964;9.118;2024-03-07T00:44:08;99702.06;;;3.57;100.00
79709;BME280;69203;48.964;9.118;2024-03-07T00:45:09;99681.53;;;3.48;100.00
79709;BME280;69203;48.964;9.118;2024-03-07T00:46:10;99689.09;;;3.56;100.00
79709;BME280;69203;48.964;9.118;2024-03-07T00:47:11;99687.47;;;3.53;100.00
79709;BME280;69203;48.964;9.118;2024-03-07T00:48:11;99681.59;;;3.45;100.00
79709;BME280;69203;48.964;9.118;2024-03-07T00:49:12;99691.25;;;3.40;100.00
79709;BME280;69203;48.964;9.118;2024-03-07T00:50:12;99689.38;;;3.45;100.00
79709;BME280;69203;48.964;9.118;2024-03-07T00:51:13;99693.56;;;3.51;100.00
79709;BME280;69203;48.964;9.118;2024-03-07T00:52:14;99688.59;;;3.43;100.00
79709;BME280;69203;48.964;9.118;2024-03-07T00:53:15;99692.97;;;3.41;100.00
79709;BME280;69203;48.964;9.118;2024-03-07T00:54:15;99686.03;;;3.42;100.00
79709;BME280;69203;48.964;9.118;2024-03-07T00:55:16;99665.69;;;3.25;100.00
79709;BME280;69203;48.964;9.118;2024-03-07T00:56:18;99670.91;;;3.23;100.00
79709;BME280;69203;48.964;9.118;2024-03-07T00:57:19;99678.41;;;3.34;100.00
79709;BME280;69203;48.964;9.118;2024-03-07T00:58:26;99669.13;;;3.25;100.00
79709;BME280;69203;48.964;9.118;2024-03-07T00:59:27;99671.09;;;3.16;100.00
79709;BME280;69203;48.964;9.118;2024-03-07T01:00:29;99677.88;;;3.21;100.00
79709;BME280;69203;48.964;9.118;2024-03-07T01:01:29;99662.09;;;2.95;100.00
79709;BME280;69203;48.964;9.118;2024-03-07T01:02:31;99669.88;;;2.95;100.00
79709;BME280;69203;48.964;9.118;2024-03-07T01:03:31;99663.84;;;2.94;100.00
79709;BME280;69203;48.964;9.118;2024-03-07T01:04:32;99663.75;;;2.97;100.00
79709;BME280;69203;48.964;9.118;2024-03-07T01:05:33;99662.03;;;2.98;100.00
79709;BME280;69203;48.964;9.118;2024-03-07T01:06:34;99660.41;;;2.92;100.00
79709;BME280;69203;48.964;9.118;2024-03-07T01:07:36;99657.81;;;2.94;100.00
79709;BME280;69203;48.964;9.118;2024-03-07T01:08:39;99652.78;;;2.86;100.00
79709;BME280;69203;48.964;9.118;2024-03-07T01:09:39;99658.97;;;2.81;100.00
79709;BME280;69203;48.964;9.118;2024-03-07T01:10:40;99664.97;;;2.83;100.00
79709;BME280;69203;48.964;9.118;2024-03-07T01:11:42;99660.69;;;2.80;100.00
79709;BME280;69203;48.964;9.118;2024-03-07T01:12:43;99664.41;;;2.70;100.00
79709;BME280;69203;48.964;9.118;2024-03-07T01:13:43;99655.94;;;2.64;100.00
79709;BME280;69203;48.964;9.118;2024-03-07T01:14:44;99660.25;;;2.63;100.00
79709;BME280;69203;48.964;9.118;2024-03-07T01:15:46;99651.97;;;2.47;100.00
79709;BME280;69203;48.964;9.118;2024-03-07T01:16:46;99649.50;;;2.41;100.00
79709;BME280;69203;48.964;9.118;2024-03-07T01:17:47;99642.97;;;2.24;100.00
79709;BME280;69203;48.964;9.118;2024-03-07T01:18:48;99658.41;;;2.28;100.00
79709;BME280;69203;48.964;9.118;2024-03-07T01:19:49;99652.53;;;2.22;100.00
79709;BME280;69203;48.964;9.118;2024-03-07T01:20:49;99661.28;;;2.16;100.00
79709;BME280;69203;48.964;9.118;2024-03-07T01:21:50;99652.56;;;2.20;100.00
79709;BME280;69203;48.964;9.118;2024-03-07T01:22:51;99656.06;;;2.18;100.00
79709;BME280;69203;48.964;9.118;2024-03-07T01:23:51;99672.09;;;2.35;100.00
79709;BME280;69203;48.964;9.118;2024-03-07T01:24:52;99665.34;;;2.28;100.00
79709;BME280;69203;48.964;9.118;2024-03-07T01:25:52;99662.56;;;2.37;100.00
79709;BME280;69203;48.964;9.118;2024-03-07T01:26:52;99666.25;;;2.27;100.00
79709;BME280;69203;48.964;9.118;2024-03-07T01:27:53;99673.09;;;2.28;100.00
79709;BME280;69203;48.964;9.118;2024-03-07T01:28:57;99682.41;;;2.38;100.00
79709;BME280;69203;48.964;9.118;2024-03-07T01:29:58;99688.19;;;2.49;100.00
79709;BME280;69203;48.964;9.118;2024-03-07T01:30:58;99680.72;;;2.37;100.00
79709;BME280;69203;48.964;9.118;2024-03-07T01:31:59;99689.38;;;2.36;100.00
79709;BME280;69203;48.964;9.118;2024-03-07T01:32:59;99687.63;;;2.36;100.00
79709;BME280;69203;48.964;9.118;2024-03-07T01:33:59;99685.56;;;2.52;100.00
79709;BME280;69203;48.964;9.118;2024-03-07T01:35:00;99678.78;;;2.46;100.00
79709;BME280;69203;48.964;9.118;2024-03-07T01:36:00;99688.28;;;2.46;100.00
79709;BME280;69203;48.964;9.118;2024-03-07T01:37:01;99690.78;;;2.49;100.00
79709;BME280;69203;48.964;9.118;2024-03-07T01:38:02;99693.53;;;2.43;100.00
79709;BME280;69203;48.964;9.118;2024-03-07T01:39:03;99677.06;;;2.44;100.00
79709;BME280;69203;48.964;9.118;2024-03-07T01:40:04;99694.84;;;2.62;100.00
79709;BME280;69203;48.964;9.118;2024-03-07T01:41:05;99690.53;;;2.61;100.00
79709;BME280;69203;48.964;9.118;2024-03-07T01:42:05;99662.59;;;2.35;100.00
79709;BME280;69203;48.964;9.118;2024-03-07T01:43:09;99669.13;;;2.53;100.00
79709;BME280;69203;48.964;9.118;2024-03-07T01:44:10;99675.25;;;2.49;100.00
79709;BME280;69203;48.964;9.118;2024-03-07T01:45:10;99687.13;;;2.59;100.00
79709;BME280;69203;48.964;9.118;2024-03-07T01:46:38;99669.19;;;2.50;100.00
79709;BME280;69203;48.964;9.118;2024-03-07T01:47:45;99674.31;;;2.53;100.00
79709;BME280;69203;48.964;9.118;2024-03-07T01:49:01;99632.38;;;2.34;100.00
79709;BME280;69203;48.964;9.118;2024-03-07T01:50:42;99594.94;;;2.10;100.00
79709;BME280;69203;48.964;9.118;2024-03-07T01:51:58;99600.13;;;2.09;100.00
79709;BME280;69203;48.964;9.118;2024-03-07T01:53:18;99624.84;;;2.24;100.00
79709;BME280;69203;48.964;9.118;2024-03-07T01:54:19;99651.25;;;2.41;100.00
79709;BME280;69203;48.964;9.118;2024-03-07T01:55:19;99658.16;;;2.40;100.00
79709;BME280;69203;48.964;9.118;2024-03-07T01:56:21;99654.69;;;2.41;100.00
79709;BME280;69203;48.964;9.118;2024-03-07T01:57:22;99661.50;;;2.45;100.00
79709;BME280;69203;48.964;9.118;2024-03-07T01:58:24;99653.72;;;2.45;100.00
79709;BME280;69203;48.964;9.118;2024-03-07T01:59:24;99652.81;;;2.48;100.00
79709;BME280;69203;48.964;9.118;2024-03-07T02:00:27;99607.56;;;2.24;100.00
79709;BME280;69203;48.964;9.118;2024-03-07T02:01:28;99650.16;;;2.51;100.00
79709;BME280;69203;48.964;9.118;2024-03-07T02:02:28;99645.06;;;2.48;100.00
79709;BME280;69203;48.964;9.118;2024-03-07T02:03:29;99643.34;;;2.47;100.00
79709;BME280;69203;48.964;9.118;2024-03-07T02:04:29;99637.41;;;2.42;100.00
79709;BME280;69203;48.964;9.118;2024-03-07T02:05:29;99640.06;;;2.39;100.00
79709;BME280;69203;48.964;9.118;2024-03-07T02:06:32;99640.88;;;2.41;100.00
79709;BME280;69203;48.964;9.118;2024-03-07T02:07:33;99622.22;;;2.27;100.00
79709;BME280;69203;48.964;9.118;2024-03-07T02:08:34;99636.78;;;2.32;100.00
79709;BME280;69203;48.964;9.118;2024-03-07T02:09:35;99632.41;;;2.33;100.00
79709;BME280;69203;48.964;9.118;2024-03-07T02:10:36;99624.78;;;2.27;100.00
79709;BME280;69203;48.964;9.118;2024-03-07T02:11:36;99631.50;;;2.35;100.00
79709;BME280;69203;48.964;9.118;2024-03-07T02:12:36;99627.09;;;2.39;100.00
79709;BME280;69203;48.964;9.118;2024-03-07T02:13:37;99634.94;;;2.37;100.00
79709;BME280;69203;48.964;9.118;2024-03-07T02:14:37;99634.06;;;2.37;100.00
79709;BME280;69203;48.964;9.118;2024-03-07T02:15:38;99618.63;;;2.32;100.00
79709;BME280;69203;48.964;9.118;2024-03-07T02:16:38;99638.22;;;2.44;100.00
79709;BME280;69203;48.964;9.118;2024-03-07T02:17:40;99628.94;;;2.34;100.00
79709;BME280;69203;48.964;9.118;2024-03-07T02:18:40;99631.59;;;2.32;100.00
79709;BME280;69203;48.964;9.118;2024-03-07T02:19:41;99625.69;;;2.26;100.00
79709;BME280;69203;48.964;9.118;2024-03-07T02:20:44;99621.41;;;2.23;100.00
79709;BME280;69203;48.964;9.118;2024-03-07T02:21:46;99622.22;;;2.25;100.00
79709;BME280;69203;48.964;9.118;2024-03-07T02:22:47;99612.09;;;2.15;100.00
79709;BME280;69203;48.964;9.118;2024-03-07T02:23:47;99611.91;;;2.22;100.00
79709;BME280;69203;48.964;9.118;2024-03-07T02:24:47;99619.78;;;2.19;100.00
79709;BME280;69203;48.964;9.118;2024-03-07T02:25:48;99618.13;;;2.17;100.00
79709;BME280;69203;48.964;9.118;2024-03-07T02:26:48;99614.72;;;2.13;100.00
79709;BME280;69203;48.964;9.118;2024-03-07T02:27:48;99613.84;;;2.14;100.00
79709;BME280;69203;48.964;9.118;2024-03-07T02:28:49;99606.16;;;2.09;100.00
79709;BME280;69203;48.964;9.118;2024-03-07T02:29:49;99612.00;;;2.19;100.00
79709;BME280;69203;48.964;9.118;2024-03-07T02:30:51;99613.69;;;2.22;100.00
79709;BME280;69203;48.964;9.118;2024-03-07T02:31:53;99619.00;;;2.16;100.00
79709;BME280;69203;48.964;9.118;2024-03-07T02:32:53;99612.00;;;2.19;100.00
79709;BME280;69203;48.964;9.118;2024-03-07T02:33:55;99595.84;;;2.08;100.00
79709;BME280;69203;48.964;9.118;2024-03-07T02:34:55;99606.09;;;2.12;100.00
79709;BME280;69203;48.964;9.118;2024-03-07T02:35:55;99591.69;;;2.01;100.00
79709;BME280;69203;48.964;9.118;2024-03-07T02:36:56;99601.13;;;2.03;100.00
79709;BME280;69203;48.964;9.118;2024-03-07T02:37:56;99599.41;;;2.02;100.00
79709;BME280;69203;48.964;9.118;2024-03-07T02:38:56;99595.25;;;1.95;100.00
79709;BME280;69203;48.964;9.118;2024-03-07T02:39:57;99590.22;;;1.88;100.00
79709;BME280;69203;48.964;9.118;2024-03-07T02:40:58;99606.59;;;1.90;100.00
79709;BME280;69203;48.964;9.118;2024-03-07T02:41:59;99602.31;;;1.87;100.00
79709;BME280;69203;48.964;9.118;2024-03-07T02:42:59;99605.50;;;2.00;100.00
79709;BME280;69203;48.964;9.118;2024-03-07T02:44:00;99601.19;;;2.00;100.00
79709;BME280;69203;48.964;9.118;2024-03-07T02:45:03;99593.59;;;1.91;100.00
79709;BME280;69203;48.964;9.118;2024-03-07T02:46:05;99604.66;;;1.99;100.00
79709;BME280;69203;48.964;9.118;2024-03-07T02:47:06;99585.06;;;1.88;100.00
79709;BME280;69203;48.964;9.118;2024-03-07T02:48:07;99592.72;;;1.92;100.00
79709;BME280;69203;48.964;9.118;2024-03-07T02:49:09;99592.69;;;1.94;100.00
79709;BME280;69203;48.964;9.118;2024-03-07T02:50:10;99597.97;;;1.89;100.00
79709;BME280;69203;48.964;9.118;2024-03-07T02:51:11;99591.28;;;1.79;100.00
79709;BME280;69203;48.964;9.118;2024-03-07T02:52:12;99593.72;;;1.85;100.00
79709;BME280;69203;48.964;9.118;2024-03-07T02:53:12;99585.06;;;1.88;100.00
79709;BME280;69203;48.964;9.118;2024-03-07T02:54:13;99584.28;;;1.83;100.00
79709;BME280;69203;48.964;9.118;2024-03-07T02:55:13;99596.38;;;1.82;100.00
79709;BME280;69203;48.964;9.118;2024-03-07T02:56:14;99576.81;;;1.69;100.00
79709;BME280;69203;48.964;9.118;2024-03-07T02:57:14;99581.06;;;1.72;100.00
79709;BME280;69203;48.964;9.118;2024-03-07T02:58:16;99582.03;;;1.66;100.00
79709;BME280;69203;48.964;9.118;2024-03-07T02:59:16;99581.91;;;1.74;100.00
79709;BME280;69203;48.964;9.118;2024-03-07T03:00:17;99579.41;;;1.69;100.00
79709;BME280;69203;48.964;9.118;2024-03-07T03:01:20;99581.84;;;1.75;100.00
79709;BME280;69203;48.964;9.118;2024-03-07T03:02:21;99585.38;;;1.73;100.00
79709;BME280;69203;48.964;9.118;2024-03-07T03:03:21;99571.66;;;1.67;100.00
79709;BME280;69203;48.964;9.118;2024-03-07T03:04:21;99586.25;;;1.70;100.00
79709;BME280;69203;48.964;9.118;2024-03-07T03:05:22;99575.97;;;1.68;100.00
79709;BME280;69203;48.964;9.118;2024-03-07T03:06:24;99571.69;;;1.66;100.00
79709;BME280;69203;48.964;9.118;2024-03-07T03:07:26;99575.16;;;1.65;100.00
79709;BME280;69203;48.964;9.118;2024-03-07T03:08:29;99569.13;;;1.64;100.00
79709;BME280;69203;48.964;9.118;2024-03-07T03:09:31;99565.72;;;1.62;100.00
79709;BME280;69203;48.964;9.118;2024-03-07T03:10:33;99575.22;;;1.63;100.00
79709;BME280;69203;48.964;9.118;2024-03-07T03:11:34;99571.88;;;1.58;100.00
79709;BME280;69203;48.964;9.118;2024-03-07T03:12:37;99563.19;;;1.59;100.00
79709;BME280;69203;48.964;9.118;2024-03-07T03:13:37;99555.53;;;1.55;100.00
79709;BME280;69203;48.964;9.118;2024-03-07T03:14:38;99557.34;;;1.51;100.00
79709;BME280;69203;48.964;9.118;2024-03-07T03:15:41;99570.94;;;1.59;100.00
79709;BME280;69203;48.964;9.118;2024-03-07T03:16:42;99565.72;;;1.62;100.00
79709;BME280;69203;48.964;9.118;2024-03-07T03:17:47;99556.41;;;1.54;100.00
79709;BME280;69203;48.964;9.118;2024-03-07T03:18:47;99564.97;;;1.57;100.00
79709;BME280;69203;48.964;9.118;2024-03-07T03:19:49;99570.94;;;1.61;100.00
79709;BME280;69203;48.964;9.118;2024-03-07T03:20:51;99560.56;;;1.61;100.00
79709;BME280;69203;48.964;9.118;2024-03-07T03:21:52;99565.75;;;1.61;100.00
79709;BME280;69203;48.964;9.118;2024-03-07T03:22:53;99570.91;;;1.62;100.00
79709;BME280;69203;48.964;9.118;2024-03-07T03:23:55;99563.94;;;1.66;100.00
79709;BME280;69203;48.964;9.118;2024-03-07T03:24:56;99567.50;;;1.60;100.00
79709;BME280;69203;48.964;9.118;2024-03-07T03:25:56;99561.56;;;1.54;100.00
79709;BME280;69203;48.964;9.118;2024-03-07T03:26:57;99563.34;;;1.53;100.00
79709;BME280;69203;48.964;9.118;2024-03-07T03:27:58;99566.63;;;1.60;100.00
79709;BME280;69203;48.964;9.118;2024-03-07T03:28:58;99569.28;;;1.58;100.00
79709;BME280;69203;48.964;9.118;2024-03-07T03:29:59;99567.59;;;1.54;100.00
79709;BME280;69203;48.964;9.118;2024-03-07T03:31:00;99570.28;;;1.50;100.00
79709;BME280;69203;48.964;9.118;2024-03-07T03:32:01;99568.38;;;1.59;100.00
79709;BME280;69203;48.964;9.118;2024-03-07T03:33:01;99572.91;;;1.48;100.00
79709;BME280;69203;48.964;9.118;2024-03-07T03:34:02;99573.72;;;1.52;100.00
79709;BME280;69203;48.964;9.118;2024-03-07T03:35:03;99566.97;;;1.43;100.00
79709;BME280;69203;48.964;9.118;2024-03-07T03:36:03;99568.75;;;1.40;100.00
79709;BME280;69203;48.964;9.118;2024-03-07T03:37:04;99564.53;;;1.37;100.00
79709;BME280;69203;48.964;9.118;2024-03-07T03:38:05;99570.41;;;1.44;100.00
79709;BME280;69203;48.964;9.118;2024-03-07T03:39:06;99579.00;;;1.46;100.00
79709;BME280;69203;48.964;9.118;2024-03-07T03:40:07;99577.25;;;1.48;100.00
79709;BME280;69203;48.964;9.118;2024-03-07T03:41:09;99573.00;;;1.44;100.00
79709;BME280;69203;48.964;9.118;2024-03-07T03:42:15;99583.25;;;1.48;100.00
79709;BME280;69203;48.964;9.118;2024-03-07T03:43:15;99574.69;;;1.46;100.00
79709;BME280;69203;48.964;9.118;2024-03-07T03:44:15;99573.06;;;1.41;100.00
79709;BME280;69203;48.964;9.118;2024-03-07T03:45:16;99579.09;;;1.41;100.00
79709;BME280;69203;48.964;9.118;2024-03-07T03:46:16;99567.97;;;1.36;100.00
79709;BME280;69203;48.964;9.118;2024-03-07T03:47:16;99556.03;;;1.29;100.00
79709;BME280;69203;48.964;9.118;2024-03-07T03:48:17;99565.50;;;1.30;100.00
79709;BME280;69203;48.964;9.118;2024-03-07T03:49:18;99572.28;;;1.36;100.00
79709;BME280;69203;48.964;9.118;2024-03-07T03:50:18;99566.28;;;1.34;100.00
79709;BME280;69203;48.964;9.118;2024-03-07T03:51:18;99565.44;;;1.33;100.00
79709;BME280;69203;48.964;9.118;2024-03-07T03:52:21;99559.47;;;1.30;100.00
79709;BME280;69203;48.964;9.118;2024-03-07T03:53:21;99568.06;;;1.32;100.00
79709;BME280;69203;48.964;9.118;2024-03-07T03:54:22;99568.03;;;1.33;100.00
79709;BME280;69203;48.964;9.118;2024-03-07T03:55:22;99570.59;;;1.33;100.00
79709;BME280;69203;48.964;9.118;2024-03-07T03:56:23;99561.13;;;1.34;100.00
79709;BME280;69203;48.964;9.118;2024-03-07T03:57:25;99553.59;;;1.21;100.00
79709;BME280;69203;48.964;9.118;2024-03-07T03:58:26;99561.22;;;1.27;100.00
79709;BME280;69203;48.964;9.118;2024-03-07T03:59:26;99563.78;;;1.29;100.00
79709;BME280;69203;48.964;9.118;2024-03-07T04:00:27;99555.16;;;1.30;100.00
79709;BME280;69203;48.964;9.118;2024-03-07T04:01:28;99551.84;;;1.22;100.00
79709;BME280;69203;48.964;9.118;2024-03-07T04:02:28;99560.41;;;1.25;100.00
79709;BME280;69203;48.964;9.118;2024-03-07T04:03:29;99559.56;;;1.25;100.00
79709;BME280;69203;48.964;9.118;2024-03-07T04:04:30;99556.19;;;1.21;100.00
79709;BME280;69203;48.964;9.118;2024-03-07T04:05:31;99554.53;;;1.17;100.00
79709;BME280;69203;48.964;9.118;2024-03-07T04:06:31;99560.50;;;1.21;100.00
79709;BME280;69203;48.964;9.118;2024-03-07T04:07:32;99552.75;;;1.21;100.00
79709;BME280;69203;48.964;9.118;2024-03-07T04:08:32;99551.03;;;1.20;100.00
79709;BME280;69203;48.964;9.118;2024-03-07T04:09:32;99544.13;;;1.20;100.00
79709;BME280;69203;48.964;9.118;2024-03-07T04:10:33;99542.53;;;1.13;100.00
79709;BME280;69203;48.964;9.118;2024-03-07T04:11:34;99545.00;;;1.19;100.00
79709;BME280;69203;48.964;9.118;2024-03-07T04:12:35;99551.09;;;1.17;100.00
79709;BME280;69203;48.964;9.118;2024-03-07T04:13:37;99545.13;;;1.13;100.00
79709;BME280;69203;48.964;9.118;2024-03-07T04:14:44;99538.41;;;1.05;100.00
79709;BME280;69203;48.964;9.118;2024-03-07T04:15:45;99552.03;;;1.13;100.00
79709;BME280;69203;48.964;9.118;2024-03-07T04:16:46;99556.31;;;1.15;100.00
79709;BME280;69203;48.964;9.118;2024-03-07T04:17:47;99542.66;;;1.07;100.00
79709;BME280;69203;48.964;9.118;2024-03-07T04:18:47;99543.47;;;1.09;100.00
79709;BME280;69203;48.964;9.118;2024-03-07T04:19:48;99551.13;;;1.15;100.00
79709;BME280;69203;48.964;9.118;2024-03-07T04:20:48;99552.94;;;1.10;100.00
79709;BME280;69203;48.964;9.118;2024-03-07T04:21:49;99539.28;;;1.04;100.00
79709;BME280;69203;48.964;9.118;2024-03-07T04:22:49;99553.91;;;1.05;100.00
79709;BME280;69203;48.964;9.118;2024-03-07T04:23:51;99543.47;;;1.09;100.00
79709;BME280;69203;48.964;9.118;2024-03-07T04:24:52;99541.84;;;1.04;100.00
79709;BME280;69203;48.964;9.118;2024-03-07T04:25:55;99544.34;;;1.08;100.00
79709;BME280;69203;48.964;9.118;2024-03-07T04:26:56;99546.16;;;1.05;100.00
79709;BME280;69203;48.964;9.118;2024-03-07T04:27:57;99531.72;;;0.93;100.00
79709;BME280;69203;48.964;9.118;2024-03-07T04:28:58;99542.81;;;1.00;100.00
79709;BME280;69203;48.964;9.118;2024-03-07T04:29:58;99535.91;;;1.00;100.00
79709;BME280;69203;48.964;9.118;2024-03-07T04:30:59;99524.84;;;0.91;100.00
79709;BME280;69203;48.964;9.118;2024-03-07T04:32:00;99542.72;;;1.03;100.00
79709;BME280;69203;48.964;9.118;2024-03-07T04:33:04;99518.06;;;0.85;100.00
79709;BME280;69203;48.964;9.118;2024-03-07T04:34:05;99543.03;;;0.86;100.00
79709;BME280;69203;48.964;9.118;2024-03-07T04:35:06;99539.44;;;0.95;100.00
79709;BME280;69203;48.964;9.118;2024-03-07T04:36:12;99524.91;;;0.89;100.00
79709;BME280;69203;48.964;9.118;2024-03-07T04:37:12;99542.91;;;0.94;100.00
79709;BME280;69203;48.964;9.118;2024-03-07T04:38:14;99537.75;;;0.94;100.00
79709;BME280;69203;48.964;9.118;2024-03-07T04:39:15;99533.38;;;0.96;100.00
79709;BME280;69203;48.964;9.118;2024-03-07T04:40:33;99530.16;;;0.84;100.00
79709;BME280;69203;48.964;9.118;2024-03-07T04:41:35;99523.28;;;0.83;100.00
79709;BME280;69203;48.964;9.118;2024-03-07T04:42:36;99532.59;;;0.91;100.00
79709;BME280;69203;48.964;9.118;2024-03-07T04:43:36;99532.75;;;0.83;100.00
79709;BME280;69203;48.964;9.118;2024-03-07T04:44:37;99527.63;;;0.80;100.00
79709;BME280;69203;48.964;9.118;2024-03-07T04:45:39;99526.72;;;0.82;100.00
79709;BME280;69203;48.964;9.118;2024-03-07T04:46:40;99524.13;;;0.84;100.00
79709;BME280;69203;48.964;9.118;2024-03-07T04:47:43;99529.16;;;0.90;100.00
79709;BME280;69203;48.964;9.118;2024-03-07T04:48:44;99517.28;;;0.81;100.00
79709;BME280;69203;48.964;9.118;2024-03-07T04:49:45;99522.50;;;0.78;100.00
79709;BME280;69203;48.964;9.118;2024-03-07T04:50:45;99522.59;;;0.74;100.00
79709;BME280;69203;48.964;9.118;2024-03-07T04:51:46;99508.16;;;0.62;100.00
79709;BME280;69203;48.964;9.118;2024-03-07T04:52:47;99520.81;;;0.74;100.00
79709;BME280;69203;48.964;9.118;2024-03-07T04:53:47;99524.22;;;0.78;100.00
79709;BME280;69203;48.964;9.118;2024-03-07T04:54:47;99528.44;;;0.83;100.00
79709;BME280;69203;48.964;9.118;2024-03-07T04:55:48;99519.94;;;0.77;100.00
79709;BME280;69203;48.964;9.118;2024-03-07T04:56:49;99528.53;;;0.77;100.00
79709;BME280;69203;48.964;9.118;2024-03-07T04:57:50;99523.47;;;0.71;100.00
79709;BME280;69203;48.964;9.118;2024-03-07T04:58:51;99525.19;;;0.72;100.00
79709;BME280;69203;48.964;9.118;2024-03-07T04:59:55;99533.81;;;0.71;100.00
79709;BME280;69203;48.964;9.118;2024-03-07T05:00:55;99514.13;;;0.64;100.00
79709;BME280;69203;48.964;9.118;2024-03-07T05:01:56;99516.75;;;0.61;100.00
79709;BME280;69203;48.964;9.118;2024-03-07T05:02:56;99513.25;;;0.64;100.00
79709;BME280;69203;48.964;9.118;2024-03-07T05:03:57;99526.91;;;0.72;100.00
79709;BME280;69203;48.964;9.118;2024-03-07T05:04:57;99526.25;;;0.61;100.00
79709;BME280;69203;48.964;9.118;2024-03-07T05:05:57;99532.25;;;0.63;100.00
79709;BME280;69203;48.964;9.118;2024-03-07T05:07:00;99532.94;;;0.72;100.00
79709;BME280;69203;48.964;9.118;2024-03-07T05:08:00;99534.75;;;0.67;100.00
79709;BME280;69203;48.964;9.118;2024-03-07T05:09:05;99533.81;;;0.71;100.00
79709;BME280;69203;48.964;9.118;2024-03-07T05:10:10;99527.84;;;0.68;100.00
79709;BME280;69203;48.964;9.118;2024-03-07T05:11:10;99535.63;;;0.65;100.00
79709;BME280;69203;48.964;9.118;2024-03-07T05:12:10;99534.69;;;0.69;100.00
79709;BME280;69203;48.964;9.118;2024-03-07T05:13:11;99525.38;;;0.60;100.00
79709;BME280;69203;48.964;9.118;2024-03-07T05:14:11;99530.56;;;0.59;100.00
79709;BME280;69203;48.964;9.118;2024-03-07T05:15:12;99527.97;;;0.60;100.00
79709;BME280;69203;48.964;9.118;2024-03-07T05:16:12;99529.84;;;0.52;100.00
79709;BME280;69203;48.964;9.118;2024-03-07T05:17:12;99537.50;;;0.57;100.00
79709;BME280;69203;48.964;9.118;2024-03-07T05:18:13;99537.44;;;0.61;100.00
79709;BME280;69203;48.964;9.118;2024-03-07T05:19:14;99531.50;;;0.55;100.00
79709;BME280;69203;48.964;9.118;2024-03-07T05:20:15;99536.78;;;0.49;100.00
79709;BME280;69203;48.964;9.118;2024-03-07T05:21:15;99532.44;;;0.51;100.00
79709;BME280;69203;48.964;9.118;2024-03-07T05:22:39;99530.69;;;0.53;100.00
79709;BME280;69203;48.964;9.118;2024-03-07T05:23:50;99536.69;;;0.55;100.00
79709;BME280;69203;48.964;9.118;2024-03-07T05:24:50;99526.41;;;0.52;100.00
79709;BME280;69203;48.964;9.118;2024-03-07T05:25:51;99526.41;;;0.52;100.00